SBOSBO AAN / OMAL
Speedbird OnlineSpeedbird Online AAN / OMAL

Al Ain International Airport
11:29 36°C

Location Al Ain, United Arab Emirates
Latitude: 24.261699676513672
Longitude: 55.60919952392578
Web Wikipedia
Altitude 265 Meter / 869 Feet
Distance 5,557 KM / 3,453 Miles
from London.
Time Zone UTC +4 hours (Asia/Dubai)
Codes IATA: AAN
ICAO: OMAL
Currency £1 equals AED 4.16
Runways
RunwayLength (m)Surface
014000Asphalt
194000Asphalt
Radio
TypeDescriptionFrequency
APPAPP119.85
GNDGND129.15
TWRTWR119.85
Live ATC
METAR OMAL 060700Z 15005KT 100V200 CAVOK 36/13 Q1010 NOSIG
TAF TAF OMAL 060500Z 0606/0712 17010KT 8000 NSC BECMG 0608/0610 33010KT BECMG 0617/0619 08005KT BECMG 0702/0704 15008KT
Weather As Of 06 Oct 2022 11:29
Description Clear sky
Wind 9 km/h from South-East (150°)
Cloud Cover 0%
Precipitation Rain: none, Snow: none
Sunrise 06:11
Sunset 18:00
Rotations During the last 90 days there were
1 flights from LHR


© 2017-2022 Speedbird Online